Tampa, Florida
Current Conditions -  °F | °C
As of 10:53 AM on Wednesday 28 Jan 2015 (Local Time) from KTPA Reporting Station
Clear Clear  
Wind Chill: 14°   Ceiling: Unl
Heat Index: 14°   Visibility: 10mi
Dew Point:   Wind: 9mph
Humidity: 40%   Direction: 10°N
Pressure: 30.26"   Gusts: NA
Location:  27.95°N, 82.46°W
Report Text: KTPA 281553Z 01008KT 10SM CLR 14/01 A3026 RMK AO2 SLP245 T01390006
Loading
Personal Weather Stations






























Interactive Weather Map New forecast layout! Learn more

10-Day Weather Forecast

Advertisements
Track Severe Weather on mobile